Time;durP1;ratioP1;P1;durP2;ratioP2;P2;SDS_P1;SDS_P2;PMS_P1;PMS_P2;Temp;Humidity;BMP_temperature;BMP_pressure;BME280_temperature;BME280_humidity;BME280_pressure;Samples;Min_cycle;Max_cycle;Signal;HPM_P1;HPM_P2
2022/03/05 00:00:57;;;;;;;16.80;9.45;;;0.90;70.90;;;;;;5073177;28;20203;-76
2022/03/05 00:03:25;;;;;;;11.57;8.75;;;0.90;71.20;;;;;;5073438;28;20235;-76
2022/03/05 00:05:52;;;;;;;10.52;8.50;;;0.90;71.40;;;;;;5074562;28;20309;-78
2022/03/05 00:08:20;;;;;;;9.90;9.00;;;0.90;72.50;;;;;;5074900;28;20209;-78
2022/03/05 00:10:47;;;;;;;10.30;9.20;;;0.90;72.20;;;;;;5074263;28;20571;-78
2022/03/05 00:13:14;;;;;;;14.15;9.50;;;0.80;72.30;;;;;;5074412;28;20552;-78
2022/03/05 00:15:42;;;;;;;13.55;9.55;;;0.80;72.50;;;;;;5074290;28;20194;-78
2022/03/05 00:18:09;;;;;;;8.73;7.50;;;0.80;73.00;;;;;;5073528;28;20199;-76
2022/03/05 00:20:35;;;;;;;9.32;8.25;;;0.70;73.20;;;;;;5073594;28;20210;-78
2022/03/05 00:23:02;;;;;;;15.40;9.52;;;0.70;73.70;;;;;;5073689;28;20224;-76
2022/03/05 00:25:31;;;;;;;15.60;8.88;;;0.60;73.80;;;;;;5072834;28;20240;-76
2022/03/05 00:27:57;;;;;;;14.85;10.00;;;0.60;74.20;;;;;;5073100;28;20209;-76
2022/03/05 00:30:24;;;;;;;14.50;9.07;;;0.50;74.70;;;;;;5073005;28;20288;-78
2022/03/05 00:32:51;;;;;;;11.05;8.82;;;0.50;74.90;;;;;;5073653;28;20706;-79
2022/03/05 00:35:18;;;;;;;8.52;7.53;;;0.50;75.20;;;;;;5074414;28;20200;-78
2022/03/05 00:37:45;;;;;;;16.88;8.95;;;0.50;75.50;;;;;;5074102;28;20230;-78
2022/03/05 00:40:12;;;;;;;11.32;8.65;;;0.50;75.70;;;;;;5074613;28;20670;-78
2022/03/05 00:42:41;;;;;;;12.20;8.80;;;0.50;75.90;;;;;;5072059;28;20638;-76
2022/03/05 00:45:09;;;;;;;12.10;8.40;;;0.50;76.00;;;;;;5072070;28;20225;-76
2022/03/05 00:47:37;;;;;;;13.27;10.13;;;0.50;76.60;;;;;;5071810;28;20251;-76
2022/03/05 00:50:06;;;;;;;10.90;8.65;;;0.50;76.60;;;;;;5072188;28;20210;-76
2022/03/05 00:52:33;;;;;;;10.57;8.63;;;0.40;76.70;;;;;;5071967;28;20315;-76
2022/03/05 00:55:00;;;;;;;12.63;7.70;;;0.40;76.90;;;;;;5072262;28;20194;-76
2022/03/05 00:57:26;;;;;;;12.30;8.52;;;0.40;77.40;;;;;;5071545;28;20193;-76
2022/03/05 00:59:54;;;;;;;12.02;8.43;;;0.30;77.60;;;;;;5072114;28;20199;-76
2022/03/05 01:02:21;;;;;;;11.40;9.43;;;0.30;77.90;;;;;;5071905;28;20229;-76
2022/03/05 01:04:48;;;;;;;10.73;9.40;;;0.20;78.20;;;;;;5071401;28;20197;-76
2022/03/05 01:07:15;;;;;;;12.88;8.88;;;0.20;78.50;;;;;;5071981;28;20204;-76
2022/03/05 01:09:42;;;;;;;13.02;9.55;;;0.20;78.70;;;;;;5072065;28;20211;-77
2022/03/05 01:12:09;;;;;;;12.60;10.27;;;0.20;79.00;;;;;;5071556;28;20229;-77
2022/03/05 01:14:36;;;;;;;11.07;9.63;;;0.20;79.30;;;;;;5072003;28;20216;-77
2022/03/05 01:17:04;;;;;;;8.52;7.22;;;0.20;79.60;;;;;;5072239;28;20200;-77
2022/03/05 01:19:31;;;;;;;15.73;9.55;;;0.20;79.80;;;;;;5071825;28;20218;-77
2022/03/05 01:21:58;;;;;;;11.77;8.63;;;0.10;80.00;;;;;;5071852;28;20219;-77
2022/03/05 01:24:24;;;;;;;13.25;9.45;;;0.10;80.30;;;;;;5071694;28;20209;-77
2022/03/05 01:26:51;;;;;;;14.55;9.40;;;0.10;80.50;;;;;;5071823;28;20612;-77
2022/03/05 01:29:18;;;;;;;12.55;8.70;;;0.10;80.60;;;;;;5071933;28;20573;-77
2022/03/05 01:31:45;;;;;;;8.00;7.35;;;0.10;80.50;;;;;;5071309;28;20233;-77
2022/03/05 01:34:13;;;;;;;10.95;9.27;;;0.10;80.70;;;;;;5071493;28;20650;-77
2022/03/05 01:36:40;;;;;;;12.68;9.73;;;0.10;81.10;;;;;;5071398;28;20198;-77
2022/03/05 01:39:06;;;;;;;15.00;9.40;;;0.10;81.40;;;;;;5071283;28;20209;-77
2022/03/05 01:41:33;;;;;;;13.73;8.70;;;0.10;81.70;;;;;;5071402;28;20560;-77
2022/03/05 01:44:00;;;;;;;12.40;10.95;;;0.10;82.00;;;;;;5071648;28;20223;-77
2022/03/05 01:46:31;;;;;;;10.18;8.90;;;0.00;82.00;;;;;;5071793;28;20597;-77
2022/03/05 01:48:58;;;;;;;15.13;10.98;;;0.00;82.30;;;;;;5071443;28;20665;-77
2022/03/05 01:51:27;;;;;;;16.15;10.30;;;0.00;82.60;;;;;;5071169;28;20209;-77
2022/03/05 01:53:54;;;;;;;15.55;9.55;;;0.00;82.60;;;;;;5071806;28;20201;-77
2022/03/05 01:56:22;;;;;;;12.50;10.07;;;0.00;82.90;;;;;;5072680;28;20196;-77
2022/03/05 01:58:49;;;;;;;17.17;10.32;;;-0.10;83.10;;;;;;5075789;28;20204;-77
2022/03/05 02:01:16;;;;;;;11.90;8.90;;;-0.10;83.40;;;;;;5075547;28;20212;-77
2022/03/05 02:03:43;;;;;;;9.80;7.90;;;-0.10;83.60;;;;;;5075625;28;20207;-77
2022/03/05 02:06:10;;;;;;;11.85;8.20;;;-0.10;83.90;;;;;;5075279;28;20550;-78
2022/03/05 02:08:38;;;;;;;11.45;8.13;;;-0.10;84.10;;;;;;5075325;28;20212;-77
2022/03/05 02:11:05;;;;;;;13.77;10.05;;;-0.20;84.20;;;;;;5075295;28;20289;-77
2022/03/05 02:13:32;;;;;;;11.90;9.02;;;-0.20;84.50;;;;;;5075468;28;20623;-77
2022/03/05 02:15:59;;;;;;;9.52;8.32;;;-0.20;84.80;;;;;;5075652;28;20213;-77
2022/03/05 02:18:26;;;;;;;10.98;8.23;;;-0.20;85.00;;;;;;5075354;28;20205;-77
2022/03/05 02:20:54;;;;;;;10.60;8.38;;;-0.20;85.10;;;;;;5074850;28;20205;-77
2022/03/05 02:23:21;;;;;;;17.75;8.98;;;-0.20;85.30;;;;;;5075369;28;20235;-77
2022/03/05 02:25:53;;;;;;;10.73;8.88;;;-0.30;85.80;;;;;;5074908;28;20214;-77
2022/03/05 02:28:20;;;;;;;8.00;7.25;;;-0.30;86.00;;;;;;5075166;28;20674;-77
2022/03/05 02:30:47;;;;;;;7.80;7.10;;;-0.30;86.10;;;;;;5074637;28;20206;-77
2022/03/05 02:33:14;;;;;;;13.82;8.88;;;-0.30;86.60;;;;;;5074866;28;20232;-77
2022/03/05 02:35:43;;;;;;;12.32;9.57;;;-0.40;86.70;;;;;;5075458;28;20208;-76
2022/03/05 02:38:11;;;;;;;9.18;8.20;;;-0.40;87.00;;;;;;5075655;28;20197;-76
2022/03/05 02:40:38;;;;;;;11.60;7.90;;;-0.40;87.30;;;;;;5074944;28;20201;-77
2022/03/05 02:43:05;;;;;;;9.30;8.15;;;-0.40;87.60;;;;;;5074718;28;20251;-77
2022/03/05 02:45:33;;;;;;;12.05;7.50;;;-0.40;87.80;;;;;;5074682;28;20712;-77
2022/03/05 02:48:01;;;;;;;11.65;8.30;;;-0.40;88.00;;;;;;5074203;28;20207;-77
2022/03/05 02:50:27;;;;;;;12.73;8.27;;;-0.40;88.00;;;;;;5074536;28;20586;-77
2022/03/05 02:52:54;;;;;;;13.32;8.60;;;-0.40;88.30;;;;;;5074284;28;20228;-77
2022/03/05 02:55:22;;;;;;;11.73;8.85;;;-0.40;88.50;;;;;;5074563;28;20674;-77
2022/03/05 02:57:49;;;;;;;16.30;9.70;;;-0.50;88.50;;;;;;5074658;28;20205;-77
2022/03/05 03:00:16;;;;;;;11.65;9.30;;;-0.50;88.70;;;;;;5074027;28;20201;-77
2022/03/05 03:02:45;;;;;;;9.32;7.88;;;-0.50;89.10;;;;;;5074047;28;20221;-77
2022/03/05 03:05:12;;;;;;;9.25;8.13;;;-0.50;89.50;;;;;;5074534;28;20670;-77
2022/03/05 03:07:38;;;;;;;13.98;9.02;;;-0.50;89.80;;;;;;5074185;28;20247;-77
2022/03/05 03:10:07;;;;;;;11.88;9.20;;;-0.50;89.80;;;;;;5073896;28;20209;-77
2022/03/05 03:12:35;;;;;;;11.50;7.55;;;-0.60;90.00;;;;;;5074058;28;20225;-77
2022/03/05 03:15:02;;;;;;;11.38;8.85;;;-0.60;90.10;;;;;;5073910;28;20655;-77
2022/03/05 03:17:29;;;;;;;10.40;7.75;;;-0.60;90.30;;;;;;5074365;28;20221;-77
2022/03/05 03:19:55;;;;;;;10.43;8.63;;;-0.60;90.30;;;;;;5074330;28;20213;-77
2022/03/05 03:22:22;;;;;;;15.52;8.95;;;-0.60;90.40;;;;;;5074104;28;20221;-77
2022/03/05 03:24:49;;;;;;;8.63;7.57;;;-0.70;90.60;;;;;;5073587;28;20200;-77
2022/03/05 03:27:15;;;;;;;13.60;10.25;;;-0.80;90.90;;;;;;5073814;28;20218;-77
2022/03/05 03:29:43;;;;;;;11.25;8.40;;;-0.80;91.00;;;;;;5075752;28;20213;-77
2022/03/05 03:32:10;;;;;;;10.23;8.40;;;-0.80;91.20;;;;;;5077337;28;20221;-76
2022/03/05 03:34:37;;;;;;;7.97;7.10;;;-0.80;91.30;;;;;;5080853;28;20558;-77
2022/03/05 03:37:04;;;;;;;9.80;7.57;;;-0.90;91.30;;;;;;5085616;28;20198;-76
2022/03/05 03:39:31;;;;;;;11.20;8.50;;;-0.90;91.40;;;;;;5085431;28;20685;-76
2022/03/05 03:41:57;;;;;;;15.18;8.45;;;-0.90;91.60;;;;;;5077647;28;20267;-76
2022/03/05 03:44:24;;;;;;;14.32;9.60;;;-0.90;91.70;;;;;;5074139;28;20678;-76
2022/03/05 03:46:53;;;;;;;15.73;8.80;;;-0.90;92.00;;;;;;5079378;28;20217;-77
2022/03/05 03:49:20;;;;;;;12.57;9.05;;;-0.90;92.10;;;;;;5085487;28;20205;-76
2022/03/05 03:51:46;;;;;;;9.60;7.75;;;-0.90;92.20;;;;;;5081419;28;20244;-77
2022/03/05 03:54:13;;;;;;;12.88;9.00;;;-0.90;92.30;;;;;;5077346;28;20205;-77
2022/03/05 03:56:40;;;;;;;9.85;8.85;;;-0.90;92.30;;;;;;5074936;28;20201;-77
2022/03/05 03:59:07;;;;;;;13.10;8.35;;;-0.90;92.40;;;;;;5077954;28;20201;-76
2022/03/05 04:01:33;;;;;;;10.38;8.70;;;-1.00;92.40;;;;;;5079525;28;20204;-77
2022/03/05 04:04:02;;;;;;;11.38;8.00;;;-1.00;92.50;;;;;;5077150;28;20201;-77
2022/03/05 04:08:41;;;;;;;10.30;7.70;;;-1.00;92.70;;;;;;5074099;28;20224;-77
2022/03/05 04:09:14;;;;;;;11.45;7.43;;;-1.00;92.80;;;;;;5073201;28;20283;-77
2022/03/05 04:11:41;;;;;;;16.50;9.40;;;-1.00;92.80;;;;;;5072906;28;20244;-77
2022/03/05 04:14:08;;;;;;;15.90;8.75;;;-1.00;92.90;;;;;;5073497;28;20921;-77
2022/03/05 04:16:35;;;;;;;7.10;6.40;;;-1.10;93.00;;;;;;5072975;28;20275;-77
2022/03/05 04:19:03;;;;;;;8.88;8.05;;;-1.10;93.20;;;;;;5072426;28;20205;-77
2022/03/05 04:21:30;;;;;;;11.13;7.35;;;-1.10;93.40;;;;;;5077850;28;20205;-76
2022/03/05 04:23:56;;;;;;;12.00;7.18;;;-1.10;93.30;;;;;;5080394;28;20205;-76
2022/03/05 04:26:23;;;;;;;10.15;8.30;;;-1.10;93.20;;;;;;5081070;28;20217;-76
2022/03/05 04:28:50;;;;;;;11.77;8.70;;;-1.00;93.40;;;;;;5081821;28;20209;-76
2022/03/05 04:31:17;;;;;;;8.63;7.07;;;-1.10;93.40;;;;;;5072720;28;20228;-77
2022/03/05 04:33:44;;;;;;;16.48;8.57;;;-1.10;93.50;;;;;;5073026;28;20276;-77
2022/03/05 04:36:12;;;;;;;9.32;7.45;;;-1.10;93.60;;;;;;5072441;28;20200;-77
2022/03/05 04:38:38;;;;;;;10.48;8.55;;;-1.20;93.70;;;;;;5072802;28;20200;-77
2022/03/05 04:41:05;;;;;;;7.32;6.72;;;-1.20;93.80;;;;;;5072374;28;20556;-77
2022/03/05 07:41:12;;;;;;;15.65;10.30;;;1.00;96.40;;;;;;4844647;29;20216;-83
2022/03/05 09:14:12;;;;;;;16.30;10.93;;;3.90;90.60;;;;;;4906295;29;20300;-82
2022/03/05 09:23:19;;;;;;;13.52;8.80;;;4.20;87.80;;;;;;4921227;29;20229;-81
2022/03/05 09:29:42;;;;;;;13.48;10.23;;;4.10;87.30;;;;;;4905346;29;20203;-82
2022/03/05 09:36:59;;;;;;;19.25;11.90;;;4.20;86.70;;;;;;4838750;29;20220;-83
2022/03/05 09:49:42;;;;;;;17.90;12.60;;;4.70;85.90;;;;;;5018898;28;20657;-84
2022/03/05 09:52:56;;;;;;;14.23;10.13;;;4.80;85.60;;;;;;5033606;28;20292;-84
2022/03/05 09:55:56;;;;;;;13.65;9.15;;;4.90;83.30;;;;;;5056945;28;20209;-84
2022/03/05 09:58:47;;;;;;;14.43;10.32;;;5.20;83.50;;;;;;5068490;28;20201;-84
2022/03/05 10:01:20;;;;;;;13.27;11.40;;;5.20;81.50;;;;;;5079321;28;20217;-85
2022/03/05 10:07:20;;;;;;;12.13;9.88;;;5.30;81.60;;;;;;5058972;28;20287;-83
2022/03/05 10:09:49;;;;;;;11.73;10.60;;;5.40;80.80;;;;;;5077181;28;20208;-83
2022/03/05 10:12:30;;;;;;;12.98;9.43;;;5.70;79.00;;;;;;5075159;28;20712;-81
2022/03/05 10:15:11;;;;;;;9.50;8.18;;;5.80;78.90;;;;;;5063929;28;20197;-83
2022/03/05 10:17:52;;;;;;;13.02;8.68;;;5.90;77.40;;;;;;5076964;28;20223;-84
2022/03/05 11:26:58;;;;;;;9.77;6.97;;;10.10;53.10;;;;;;5553262;22;20523;-82
2022/03/05 11:29:27;;;;;;;8.60;7.00;;;10.70;51.50;;;;;;5076095;28;20445;-85
2022/03/05 11:32:11;;;;;;;10.60;7.97;;;11.30;50.60;;;;;;5085225;28;20479;-85
2022/03/05 11:34:44;;;;;;;8.63;7.67;;;11.80;49.40;;;;;;5088258;28;20513;-83
2022/03/05 11:40:53;;;;;;;7.50;6.67;;;13.50;46.90;;;;;;4997656;28;21013;-81
2022/03/05 11:43:23;;;;;;;9.33;6.83;;;14.00;44.80;;;;;;5059676;28;20474;-81
2022/03/05 11:45:52;;;;;;;10.43;7.13;;;14.30;42.20;;;;;;5081399;28;20473;-81
2022/03/05 11:48:30;;;;;;;7.70;7.07;;;14.70;42.30;;;;;;5082800;28;20452;-81
2022/03/05 11:50:59;;;;;;;8.40;7.60;;;15.10;40.70;;;;;;5081062;28;20454;-80
2022/03/05 11:53:26;;;;;;;6.90;6.30;;;14.40;40.00;;;;;;5079802;28;20463;-81
2022/03/05 11:55:54;;;;;;;6.37;5.77;;;14.10;40.30;;;;;;5080415;28;20447;-79
2022/03/05 11:58:40;;;;;;;6.73;6.13;;;14.20;40.60;;;;;;5081565;28;20546;-81
2022/03/05 12:01:39;;;;;;;6.63;5.80;;;14.60;40.30;;;;;;5081202;28;20451;-81
2022/03/05 12:04:22;;;;;;;7.53;6.37;;;15.00;39.60;;;;;;5079370;28;20488;-79
2022/03/05 12:06:52;;;;;;;7.23;6.57;;;15.20;39.50;;;;;;5082990;28;20512;-80
2022/03/05 12:09:39;;;;;;;9.33;7.37;;;15.80;39.30;;;;;;5081908;28;20817;-80
2022/03/05 12:12:07;;;;;;;8.27;7.37;;;15.90;36.50;;;;;;5081412;28;20471;-81
2022/03/05 12:15:11;;;;;;;7.00;6.23;;;14.80;36.80;;;;;;5082297;28;20466;-80
2022/03/05 12:17:40;;;;;;;7.70;6.87;;;14.90;38.40;;;;;;5082295;28;20487;-82
2022/03/05 12:20:09;;;;;;;7.07;6.10;;;14.70;37.30;;;;;;5082722;28;20447;-81
2022/03/05 12:22:36;;;;;;;9.13;7.17;;;15.00;38.30;;;;;;5082169;28;20449;-82
2022/03/05 12:25:03;;;;;;;8.13;7.07;;;15.20;37.10;;;;;;5083358;28;20923;-81
2022/03/05 12:27:31;;;;;;;7.13;6.43;;;15.30;37.80;;;;;;5082903;28;20448;-80
2022/03/05 12:29:58;;;;;;;8.37;7.57;;;15.80;37.00;;;;;;5083497;28;21106;-82
2022/03/05 12:32:32;;;;;;;9.03;7.40;;;15.60;36.90;;;;;;5082872;28;20497;-81
2022/03/05 12:35:07;;;;;;;8.23;7.20;;;15.80;36.40;;;;;;5083569;28;20463;-82
2022/03/05 12:37:34;;;;;;;10.80;9.10;;;16.10;36.30;;;;;;5082312;28;20490;-82
2022/03/05 12:40:01;;;;;;;8.63;7.80;;;16.90;35.50;;;;;;5082096;28;20462;-81
2022/03/05 12:42:42;;;;;;;10.80;8.67;;;16.30;34.80;;;;;;5081571;28;20564;-81
2022/03/05 12:45:15;;;;;;;8.50;7.13;;;16.10;36.60;;;;;;5081970;28;20462;-81
2022/03/05 12:47:43;;;;;;;8.57;7.77;;;16.20;35.80;;;;;;5081313;28;20937;-81
2022/03/05 12:50:28;;;;;;;8.23;7.43;;;16.40;35.50;;;;;;5082174;28;20444;-82
2022/03/05 12:53:01;;;;;;;8.27;7.47;;;16.90;35.40;;;;;;5081774;28;20528;-82
2022/03/05 12:55:29;;;;;;;8.53;7.47;;;17.10;34.50;;;;;;5082040;28;20956;-83
2022/03/05 13:01:20;;;;;;;7.87;7.17;;;19.40;33.60;;;;;;5062297;28;20478;-81
2022/03/05 13:03:49;;;;;;;8.50;7.00;;;19.10;31.70;;;;;;5077623;28;20481;-80
2022/03/05 13:06:19;;;;;;;8.20;7.10;;;18.50;31.70;;;;;;5078239;28;20452;-82
2022/03/05 13:08:46;;;;;;;9.20;8.30;;;17.90;31.50;;;;;;5063923;28;20938;-82
2022/03/05 13:11:14;;;;;;;9.50;7.87;;;17.20;32.10;;;;;;5076404;28;20461;-83
2022/03/05 13:13:43;;;;;;;8.57;7.30;;;16.00;32.50;;;;;;5076511;28;20462;-81
2022/03/05 13:16:12;;;;;;;14.97;8.00;;;15.70;33.90;;;;;;5077695;28;20948;-82
2022/03/05 13:18:39;;;;;;;8.30;7.50;;;16.00;34.40;;;;;;5072384;28;20484;-84
2022/03/05 13:21:09;;;;;;;8.97;7.90;;;16.30;34.10;;;;;;5076337;28;20452;-84
2022/03/05 13:23:37;;;;;;;8.20;6.60;;;16.90;33.20;;;;;;5076218;28;20552;-81
2022/03/05 13:26:05;;;;;;;9.23;8.33;;;17.20;33.00;;;;;;5076599;28;20973;-82
2022/03/05 13:28:32;;;;;;;11.67;8.13;;;17.60;32.50;;;;;;5076409;28;20446;-80
2022/03/05 13:31:01;;;;;;;8.50;7.40;;;17.20;32.20;;;;;;5075480;28;20944;-80
2022/03/05 13:33:39;;;;;;;8.33;7.53;;;17.20;32.20;;;;;;5077415;28;20470;-81
2022/03/05 13:36:22;;;;;;;8.90;8.00;;;17.60;33.50;;;;;;5078888;28;20441;-81
2022/03/05 13:38:51;;;;;;;11.00;8.43;;;17.80;32.40;;;;;;5077415;28;20464;-81
2022/03/05 13:41:25;;;;;;;8.20;7.40;;;17.60;31.20;;;;;;5077851;28;20449;-81
2022/03/05 13:43:52;;;;;;;9.00;8.20;;;18.20;31.60;;;;;;5077617;28;20786;-80
2022/03/05 13:46:20;;;;;;;10.20;8.00;;;18.40;31.20;;;;;;5077241;28;20454;-81
2022/03/05 13:48:48;;;;;;;8.53;7.00;;;18.60;30.70;;;;;;5079145;28;20439;-80
2022/03/05 13:51:17;;;;;;;10.53;8.87;;;18.50;30.20;;;;;;5078339;28;20480;-80
2022/03/05 13:53:53;;;;;;;8.03;7.30;;;17.60;30.50;;;;;;5077056;28;20476;-81
2022/03/05 13:56:20;;;;;;;10.87;7.37;;;17.50;30.70;;;;;;5077590;28;20448;-81
2022/03/05 13:58:52;;;;;;;8.80;7.60;;;17.20;30.60;;;;;;5077991;28;20491;-81
2022/03/05 14:01:30;;;;;;;8.97;8.10;;;16.60;31.80;;;;;;5074640;28;20948;-81
2022/03/05 14:04:09;;;;;;;8.47;7.30;;;16.40;32.20;;;;;;5078245;28;20452;-81
2022/03/05 14:06:53;;;;;;;8.50;7.77;;;16.00;31.90;;;;;;5057993;28;20520;-81
2022/03/05 14:09:23;;;;;;;9.60;8.23;;;15.90;33.40;;;;;;5058935;28;20452;-82
2022/03/05 14:12:08;;;;;;;9.07;6.93;;;16.50;33.50;;;;;;5058738;28;20465;-82
2022/03/05 14:14:43;;;;;;;8.87;8.00;;;16.70;32.30;;;;;;5071997;28;20506;-81
2022/03/05 14:17:22;;;;;;;9.00;8.20;;;16.40;33.70;;;;;;5077810;28;20862;-82
2022/03/05 14:19:48;;;;;;;8.20;7.40;;;17.10;34.00;;;;;;5077985;28;20472;-83
2022/03/05 14:22:20;;;;;;;12.43;7.97;;;17.50;32.20;;;;;;5078273;28;20461;-80
2022/03/05 14:24:55;;;;;;;9.43;8.57;;;17.70;31.10;;;;;;5077234;28;20969;-81
2022/03/05 14:27:22;;;;;;;8.30;7.47;;;17.70;30.40;;;;;;5078234;28;20526;-81
2022/03/05 14:29:48;;;;;;;9.03;8.00;;;17.60;30.20;;;;;;5076312;28;20453;-80
2022/03/05 14:32:15;;;;;;;9.70;7.40;;;17.90;31.30;;;;;;5076755;28;20549;-80
2022/03/05 14:34:42;;;;;;;9.27;8.47;;;18.30;30.50;;;;;;5078841;28;20679;-80
2022/03/05 14:37:09;;;;;;;8.20;7.40;;;18.60;30.20;;;;;;5085804;28;20447;-80
2022/03/05 14:39:35;;;;;;;8.70;7.90;;;18.70;30.00;;;;;;5075711;28;20486;-80
2022/03/05 14:42:05;;;;;;;8.50;7.70;;;18.70;30.00;;;;;;5071899;28;20470;-80
2022/03/05 14:44:32;;;;;;;8.97;8.07;;;18.30;29.70;;;;;;5076443;28;20450;-80
2022/03/05 14:46:59;;;;;;;9.20;8.33;;;17.90;30.10;;;;;;5076012;28;20462;-80
2022/03/05 14:49:26;;;;;;;10.03;9.10;;;17.00;30.40;;;;;;5076425;28;20471;-80
2022/03/05 14:51:54;;;;;;;8.93;7.47;;;16.50;30.90;;;;;;5076125;28;20471;-80
2022/03/05 14:54:21;;;;;;;8.73;7.90;;;15.60;30.90;;;;;;5076881;28;20470;-80
2022/03/05 14:56:48;;;;;;;8.07;6.67;;;15.00;31.70;;;;;;5076872;28;21954;-81
2022/03/05 14:59:16;;;;;;;8.63;7.60;;;14.40;32.40;;;;;;5076560;28;20494;-80
2022/03/05 15:01:42;;;;;;;8.70;7.83;;;13.60;33.10;;;;;;5076449;28;20510;-81
2022/03/05 15:04:09;;;;;;;8.00;7.20;;;13.00;34.30;;;;;;5078288;28;20447;-81
2022/03/05 15:06:36;;;;;;;8.57;7.00;;;12.60;34.70;;;;;;5080572;28;20965;-81
2022/03/05 15:09:04;;;;;;;9.97;8.20;;;12.40;35.40;;;;;;5079445;28;20971;-80
2022/03/05 15:11:32;;;;;;;10.10;6.87;;;12.60;35.70;;;;;;5079080;28;20451;-81
2022/03/05 15:14:01;;;;;;;7.00;5.60;;;13.10;35.60;;;;;;5079005;28;20450;-81
2022/03/05 15:16:30;;;;;;;8.10;6.70;;;13.80;35.20;;;;;;5081232;28;20459;-81
2022/03/05 15:18:57;;;;;;;8.03;6.30;;;14.20;34.10;;;;;;5080578;28;20484;-80
2022/03/05 15:21:25;;;;;;;9.97;7.20;;;14.70;33.80;;;;;;5077920;28;20797;-81
2022/03/05 15:23:52;;;;;;;8.23;7.53;;;15.30;33.20;;;;;;5067740;28;20480;-81
2022/03/05 15:26:19;;;;;;;8.07;7.27;;;15.80;32.70;;;;;;5082156;28;20792;-80
2022/03/05 15:28:47;;;;;;;7.30;6.10;;;16.10;32.30;;;;;;5088894;28;20437;-81
2022/03/05 15:31:15;;;;;;;8.20;7.40;;;16.30;31.40;;;;;;5091748;28;20455;-81
2022/03/05 15:33:44;;;;;;;7.57;6.87;;;15.80;31.10;;;;;;5081155;28;20461;-81
2022/03/05 15:36:11;;;;;;;7.90;6.77;;;14.90;31.30;;;;;;5079373;28;20844;-81
2022/03/05 15:38:39;;;;;;;7.63;6.93;;;14.50;32.30;;;;;;5079401;28;20479;-81
2022/03/05 15:41:07;;;;;;;12.33;7.00;;;14.00;32.30;;;;;;5078993;28;20447;-81
2022/03/05 15:43:34;;;;;;;7.63;5.97;;;13.60;32.80;;;;;;5079145;28;20467;-82
2022/03/05 15:46:01;;;;;;;8.10;7.30;;;13.40;33.90;;;;;;5080130;28;20473;-80
2022/03/05 15:48:28;;;;;;;9.63;6.50;;;13.20;33.70;;;;;;5081801;28;20454;-84
2022/03/05 15:50:56;;;;;;;7.70;6.03;;;12.90;33.70;;;;;;5080621;28;20818;-80
2022/03/05 15:53:23;;;;;;;8.90;6.17;;;12.40;34.30;;;;;;5079574;28;20813;-81
2022/03/05 15:55:50;;;;;;;8.10;6.53;;;12.10;34.90;;;;;;5080177;28;20825;-81
2022/03/05 15:58:17;;;;;;;6.60;5.60;;;11.70;34.80;;;;;;5081466;28;20451;-84
2022/03/05 16:00:44;;;;;;;6.57;5.53;;;11.70;35.20;;;;;;5079876;28;20455;-81
2022/03/05 16:03:11;;;;;;;5.50;5.00;;;11.80;35.00;;;;;;5079221;28;20474;-83
2022/03/05 16:05:38;;;;;;;5.60;5.10;;;11.60;35.10;;;;;;5080757;28;20496;-83
2022/03/05 16:08:06;;;;;;;7.03;6.33;;;11.50;35.00;;;;;;5081095;28;20477;-83
2022/03/05 16:10:33;;;;;;;6.23;5.67;;;11.10;35.60;;;;;;5079040;28;20446;-82
2022/03/05 16:13:00;;;;;;;7.07;6.37;;;10.60;35.60;;;;;;5076098;28;20466;-83
2022/03/05 16:15:27;;;;;;;8.57;7.07;;;10.30;36.60;;;;;;5079370;28;20835;-81
2022/03/05 16:17:54;;;;;;;7.83;5.67;;;10.20;36.90;;;;;;5080190;28;20460;-82
2022/03/05 16:20:21;;;;;;;8.03;6.30;;;9.90;38.20;;;;;;5079694;28;20479;-82
2022/03/05 16:22:48;;;;;;;7.30;6.33;;;9.70;38.60;;;;;;5078772;28;20484;-81
2022/03/05 16:25:16;;;;;;;9.65;5.95;;;9.50;39.10;;;;;;5078674;28;20455;-81
2022/03/05 16:27:44;;;;;;;6.43;5.80;;;9.40;39.30;;;;;;5078583;28;20561;-81
2022/03/05 16:30:11;;;;;;;6.28;5.38;;;9.20;39.50;;;;;;5068475;28;20820;-81
2022/03/05 16:32:39;;;;;;;8.13;7.32;;;8.60;40.10;;;;;;5067004;28;20245;-81
2022/03/05 16:35:07;;;;;;;8.50;6.53;;;8.50;40.50;;;;;;5079307;28;20201;-81
2022/03/05 16:37:34;;;;;;;7.13;6.43;;;8.30;40.90;;;;;;5080677;28;20485;-81
2022/03/05 16:40:01;;;;;;;6.80;6.10;;;7.80;41.20;;;;;;5080200;28;20737;-81
2022/03/05 16:42:29;;;;;;;8.43;6.13;;;7.60;41.80;;;;;;5080273;28;20217;-82
2022/03/05 16:44:56;;;;;;;6.70;5.32;;;7.40;42.40;;;;;;5079067;28;20205;-83
2022/03/05 16:47:23;;;;;;;9.07;6.85;;;7.40;42.90;;;;;;5078672;28;20201;-83
2022/03/05 16:49:50;;;;;;;8.00;6.20;;;7.30;43.40;;;;;;5078579;28;20204;-82
2022/03/05 16:52:21;;;;;;;7.10;5.70;;;7.30;43.30;;;;;;5078096;28;20256;-83
2022/03/05 16:54:48;;;;;;;6.47;5.78;;;7.20;43.50;;;;;;5078902;28;20686;-82
2022/03/05 16:57:15;;;;;;;7.78;7.07;;;7.20;43.50;;;;;;5079582;28;20198;-83
2022/03/05 16:59:46;;;;;;;6.10;5.50;;;7.10;43.70;;;;;;5077879;28;20221;-83
2022/03/05 17:02:13;;;;;;;8.50;6.43;;;6.90;43.80;;;;;;5076332;28;20253;-79
2022/03/05 17:04:40;;;;;;;7.40;6.45;;;6.90;44.20;;;;;;5082205;28;20201;-84
2022/03/05 17:07:08;;;;;;;9.05;6.82;;;6.70;44.40;;;;;;5082901;28;20208;-80
2022/03/05 17:09:34;;;;;;;8.02;6.28;;;6.60;44.70;;;;;;5078349;28;20197;-79
2022/03/05 17:12:01;;;;;;;8.18;6.20;;;6.50;44.70;;;;;;5083637;28;20611;-80
2022/03/05 17:14:28;;;;;;;6.53;5.93;;;6.40;44.90;;;;;;5085144;28;20208;-80
2022/03/05 17:16:56;;;;;;;6.80;6.20;;;6.40;45.40;;;;;;5085187;28;20217;-79
2022/03/05 17:19:23;;;;;;;7.43;5.65;;;6.30;45.40;;;;;;5086341;28;20859;-79
2022/03/05 17:21:50;;;;;;;7.63;6.07;;;6.10;45.90;;;;;;5084712;28;20229;-79
2022/03/05 17:24:16;;;;;;;8.15;5.38;;;6.00;46.00;;;;;;5084839;28;20204;-79
2022/03/05 17:26:43;;;;;;;6.70;5.45;;;5.90;46.20;;;;;;5083985;28;20212;-79
2022/03/05 17:29:10;;;;;;;8.73;6.32;;;5.70;46.60;;;;;;5083350;28;20716;-79
2022/03/05 17:31:36;;;;;;;9.25;6.25;;;5.60;47.00;;;;;;5085146;28;20197;-79
2022/03/05 17:34:04;;;;;;;9.57;6.55;;;5.40;47.50;;;;;;5087258;28;20215;-79
2022/03/05 17:36:32;;;;;;;8.93;6.07;;;5.40;47.60;;;;;;5085241;28;20193;-80
2022/03/05 17:39:00;;;;;;;10.38;6.70;;;5.30;48.00;;;;;;5063657;28;20265;-80
2022/03/05 17:41:27;;;;;;;8.10;6.97;;;5.10;48.40;;;;;;5074301;28;20200;-80
2022/03/05 17:43:54;;;;;;;8.80;7.85;;;5.10;48.60;;;;;;5082624;28;20216;-79
2022/03/05 17:46:20;;;;;;;9.13;6.32;;;5.00;48.70;;;;;;5083389;28;20208;-80
2022/03/05 17:48:47;;;;;;;7.05;6.32;;;4.90;48.90;;;;;;5083678;28;20227;-80
2022/03/05 17:51:15;;;;;;;7.50;6.00;;;4.90;49.40;;;;;;5080600;28;20208;-80
2022/03/05 17:53:42;;;;;;;7.72;6.97;;;4.80;49.50;;;;;;5079129;28;20247;-80
2022/03/05 17:56:09;;;;;;;8.75;6.32;;;4.70;49.60;;;;;;5078657;28;20216;-80
2022/03/05 17:58:36;;;;;;;6.80;5.80;;;4.60;49.80;;;;;;5078265;28;20205;-79
2022/03/05 18:01:03;;;;;;;7.07;6.35;;;4.50;49.90;;;;;;5077066;28;20207;-81
2022/03/05 18:03:30;;;;;;;8.23;5.80;;;4.50;50.40;;;;;;5079241;28;20216;-80
2022/03/05 18:05:57;;;;;;;8.63;6.90;;;4.40;50.30;;;;;;5086981;28;20201;-81
2022/03/05 18:08:25;;;;;;;10.23;7.35;;;4.40;50.40;;;;;;5087348;28;20208;-81
2022/03/05 18:10:51;;;;;;;6.00;5.40;;;4.30;50.60;;;;;;5087909;28;20258;-81
2022/03/05 18:13:18;;;;;;;7.93;6.70;;;4.30;50.80;;;;;;5089911;28;20232;-81
2022/03/05 18:15:45;;;;;;;8.85;6.20;;;4.10;50.90;;;;;;5089550;28;20212;-81
2022/03/05 18:18:12;;;;;;;6.60;6.07;;;4.10;51.20;;;;;;5089240;28;20334;-80
2022/03/05 18:20:38;;;;;;;7.05;6.32;;;4.00;51.30;;;;;;5089391;28;20261;-81
2022/03/05 18:23:05;;;;;;;6.85;5.63;;;4.00;51.60;;;;;;5089868;28;20231;-80
2022/03/05 18:25:33;;;;;;;8.10;6.13;;;3.90;51.70;;;;;;5090050;28;20272;-81
2022/03/05 18:28:00;;;;;;;7.57;5.90;;;3.80;51.80;;;;;;5090034;28;20217;-82
2022/03/05 18:30:27;;;;;;;7.25;5.90;;;3.70;52.10;;;;;;5090347;28;20212;-81
2022/03/05 18:32:53;;;;;;;10.82;9.10;;;3.70;52.30;;;;;;5090122;28;20224;-82
2022/03/05 18:35:20;;;;;;;7.72;6.43;;;3.60;52.40;;;;;;5089550;28;20205;-80
2022/03/05 18:37:47;;;;;;;8.48;7.65;;;3.60;52.50;;;;;;5089878;28;20204;-80
2022/03/05 18:40:14;;;;;;;8.27;7.20;;;3.50;52.80;;;;;;5092870;28;20234;-80
2022/03/05 18:42:42;;;;;;;8.13;6.38;;;3.40;52.90;;;;;;5093952;28;20229;-79
2022/03/05 18:45:10;;;;;;;8.60;6.32;;;3.40;53.00;;;;;;5096225;28;20484;-80
2022/03/05 18:47:38;;;;;;;9.27;7.32;;;3.40;53.20;;;;;;5094984;28;20210;-80
2022/03/05 18:50:08;;;;;;;6.10;5.40;;;3.30;53.30;;;;;;5094784;28;20212;-79
2022/03/05 18:52:35;;;;;;;9.50;6.82;;;3.20;53.30;;;;;;5094221;28;20223;-80
2022/03/05 18:55:01;;;;;;;10.27;6.47;;;3.20;53.50;;;;;;5095053;28;20488;-80
2022/03/05 18:57:28;;;;;;;10.05;7.10;;;3.10;53.50;;;;;;5093466;28;20219;-81
2022/03/05 18:59:56;;;;;;;7.70;5.85;;;3.00;53.70;;;;;;5091223;28;20216;-80
2022/03/05 19:02:23;;;;;;;8.20;6.28;;;2.90;53.80;;;;;;5084178;28;20364;-81
2022/03/05 19:04:50;;;;;;;7.43;5.97;;;2.90;54.00;;;;;;5081532;28;20194;-80